sensor_id;sensor_type;location;lat;lon;timestamp;P1;durP1;ratioP1;P2;durP2;ratioP2
22230;SDS011;11284;48.086;-1.652;2022-11-20T00:01:20;14.43;;;7.40;;
22230;SDS011;11284;48.086;-1.652;2022-11-20T00:03:47;13.00;;;6.00;;
22230;SDS011;11284;48.086;-1.652;2022-11-20T00:06:14;10.70;;;6.32;;
22230;SDS011;11284;48.086;-1.652;2022-11-20T00:08:40;10.30;;;5.68;;
22230;SDS011;11284;48.086;-1.652;2022-11-20T00:11:07;9.93;;;6.30;;
22230;SDS011;11284;48.086;-1.652;2022-11-20T00:13:33;11.02;;;5.22;;
22230;SDS011;11284;48.086;-1.652;2022-11-20T00:16:00;9.32;;;5.40;;
22230;SDS011;11284;48.086;-1.652;2022-11-20T00:18:26;8.32;;;5.35;;
22230;SDS011;11284;48.086;-1.652;2022-11-20T00:20:52;10.48;;;5.38;;
22230;SDS011;11284;48.086;-1.652;2022-11-20T00:23:19;9.07;;;4.70;;
22230;SDS011;11284;48.086;-1.652;2022-11-20T00:25:45;9.88;;;5.28;;
22230;SDS011;11284;48.086;-1.652;2022-11-20T00:28:11;10.23;;;5.15;;
22230;SDS011;11284;48.086;-1.652;2022-11-20T00:30:37;9.00;;;4.90;;
22230;SDS011;11284;48.086;-1.652;2022-11-20T00:33:03;10.07;;;5.03;;
22230;SDS011;11284;48.086;-1.652;2022-11-20T00:35:29;9.75;;;4.60;;
22230;SDS011;11284;48.086;-1.652;2022-11-20T00:37:55;9.38;;;4.63;;
22230;SDS011;11284;48.086;-1.652;2022-11-20T00:40:21;9.90;;;4.47;;
22230;SDS011;11284;48.086;-1.652;2022-11-20T00:42:47;9.65;;;4.88;;
22230;SDS011;11284;48.086;-1.652;2022-11-20T00:45:13;9.40;;;4.40;;
22230;SDS011;11284;48.086;-1.652;2022-11-20T00:47:39;10.55;;;4.50;;
22230;SDS011;11284;48.086;-1.652;2022-11-20T00:50:05;12.32;;;4.60;;
22230;SDS011;11284;48.086;-1.652;2022-11-20T00:52:31;7.75;;;4.05;;
22230;SDS011;11284;48.086;-1.652;2022-11-20T00:54:57;10.55;;;4.90;;
22230;SDS011;11284;48.086;-1.652;2022-11-20T00:57:23;10.55;;;4.45;;
22230;SDS011;11284;48.086;-1.652;2022-11-20T00:59:50;6.95;;;3.60;;
22230;SDS011;11284;48.086;-1.652;2022-11-20T01:02:16;6.95;;;4.10;;
22230;SDS011;11284;48.086;-1.652;2022-11-20T01:04:42;7.85;;;4.28;;
22230;SDS011;11284;48.086;-1.652;2022-11-20T01:07:08;10.80;;;4.35;;
22230;SDS011;11284;48.086;-1.652;2022-11-20T01:09:34;9.27;;;4.32;;
22230;SDS011;11284;48.086;-1.652;2022-11-20T01:12:00;9.27;;;4.25;;
22230;SDS011;11284;48.086;-1.652;2022-11-20T01:14:26;10.88;;;5.05;;
22230;SDS011;11284;48.086;-1.652;2022-11-20T01:16:52;9.88;;;4.60;;
22230;SDS011;11284;48.086;-1.652;2022-11-20T01:19:19;9.50;;;4.60;;
22230;SDS011;11284;48.086;-1.652;2022-11-20T01:21:47;10.50;;;4.28;;
22230;SDS011;11284;48.086;-1.652;2022-11-20T01:24:14;9.32;;;4.07;;
22230;SDS011;11284;48.086;-1.652;2022-11-20T01:26:41;10.50;;;4.28;;
22230;SDS011;11284;48.086;-1.652;2022-11-20T01:29:15;8.13;;;4.03;;
22230;SDS011;11284;48.086;-1.652;2022-11-20T01:31:41;8.10;;;4.15;;
22230;SDS011;11284;48.086;-1.652;2022-11-20T01:34:09;9.30;;;4.15;;
22230;SDS011;11284;48.086;-1.652;2022-11-20T01:36:36;7.97;;;3.97;;
22230;SDS011;11284;48.086;-1.652;2022-11-20T01:39:04;8.88;;;4.18;;
22230;SDS011;11284;48.086;-1.652;2022-11-20T01:41:31;7.45;;;4.10;;
22230;SDS011;11284;48.086;-1.652;2022-11-20T01:44:17;7.00;;;3.85;;
22230;SDS011;11284;48.086;-1.652;2022-11-20T01:46:55;7.68;;;3.40;;
22230;SDS011;11284;48.086;-1.652;2022-11-20T01:49:39;9.48;;;3.65;;
22230;SDS011;11284;48.086;-1.652;2022-11-20T01:52:15;6.72;;;3.55;;
22230;SDS011;11284;48.086;-1.652;2022-11-20T01:54:45;7.88;;;3.55;;
22230;SDS011;11284;48.086;-1.652;2022-11-20T01:57:13;6.05;;;3.28;;
22230;SDS011;11284;48.086;-1.652;2022-11-20T01:59:40;6.22;;;3.22;;
22230;SDS011;11284;48.086;-1.652;2022-11-20T02:02:08;9.88;;;3.58;;
22230;SDS011;11284;48.086;-1.652;2022-11-20T02:04:34;6.97;;;3.15;;
22230;SDS011;11284;48.086;-1.652;2022-11-20T02:07:00;8.50;;;3.45;;
22230;SDS011;11284;48.086;-1.652;2022-11-20T02:09:27;6.78;;;3.20;;
22230;SDS011;11284;48.086;-1.652;2022-11-20T02:11:53;8.60;;;3.42;;
22230;SDS011;11284;48.086;-1.652;2022-11-20T02:14:19;8.13;;;3.20;;
22230;SDS011;11284;48.086;-1.652;2022-11-20T02:16:47;8.80;;;3.15;;
22230;SDS011;11284;48.086;-1.652;2022-11-20T02:19:20;7.10;;;2.95;;
22230;SDS011;11284;48.086;-1.652;2022-11-20T02:24:33;7.28;;;3.20;;
22230;SDS011;11284;48.086;-1.652;2022-11-20T02:27:03;6.80;;;3.13;;
22230;SDS011;11284;48.086;-1.652;2022-11-20T02:32:02;8.52;;;3.00;;
22230;SDS011;11284;48.086;-1.652;2022-11-20T02:34:28;8.13;;;3.33;;
22230;SDS011;11284;48.086;-1.652;2022-11-20T02:36:54;5.22;;;2.80;;
22230;SDS011;11284;48.086;-1.652;2022-11-20T02:39:21;7.88;;;2.80;;
22230;SDS011;11284;48.086;-1.652;2022-11-20T02:41:49;8.35;;;3.15;;
22230;SDS011;11284;48.086;-1.652;2022-11-20T02:44:15;8.23;;;2.97;;
22230;SDS011;11284;48.086;-1.652;2022-11-20T02:46:41;8.52;;;2.80;;
22230;SDS011;11284;48.086;-1.652;2022-11-20T02:49:15;5.95;;;2.88;;
22230;SDS011;11284;48.086;-1.652;2022-11-20T02:51:41;6.93;;;2.72;;
22230;SDS011;11284;48.086;-1.652;2022-11-20T02:54:07;6.40;;;3.08;;
22230;SDS011;11284;48.086;-1.652;2022-11-20T02:56:33;7.38;;;3.13;;
22230;SDS011;11284;48.086;-1.652;2022-11-20T02:58:59;6.95;;;3.38;;
22230;SDS011;11284;48.086;-1.652;2022-11-20T03:01:25;8.35;;;3.25;;
22230;SDS011;11284;48.086;-1.652;2022-11-20T03:03:51;6.22;;;2.53;;
22230;SDS011;11284;48.086;-1.652;2022-11-20T03:06:19;7.22;;;3.00;;
22230;SDS011;11284;48.086;-1.652;2022-11-20T03:08:45;9.00;;;3.22;;
22230;SDS011;11284;48.086;-1.652;2022-11-20T03:11:11;7.63;;;3.03;;
22230;SDS011;11284;48.086;-1.652;2022-11-20T03:13:37;6.85;;;3.20;;
22230;SDS011;11284;48.086;-1.652;2022-11-20T03:16:10;6.53;;;2.83;;
22230;SDS011;11284;48.086;-1.652;2022-11-20T03:21:02;5.65;;;3.03;;
22230;SDS011;11284;48.086;-1.652;2022-11-20T03:23:29;8.52;;;2.83;;
22230;SDS011;11284;48.086;-1.652;2022-11-20T03:25:56;9.07;;;3.45;;
22230;SDS011;11284;48.086;-1.652;2022-11-20T03:28:32;7.72;;;3.03;;
22230;SDS011;11284;48.086;-1.652;2022-11-20T03:30:58;7.90;;;3.05;;
22230;SDS011;11284;48.086;-1.652;2022-11-20T03:33:24;8.35;;;3.22;;
22230;SDS011;11284;48.086;-1.652;2022-11-20T03:35:53;6.90;;;3.25;;
22230;SDS011;11284;48.086;-1.652;2022-11-20T03:38:19;9.25;;;3.15;;
22230;SDS011;11284;48.086;-1.652;2022-11-20T03:40:45;5.40;;;3.05;;
22230;SDS011;11284;48.086;-1.652;2022-11-20T03:43:11;7.22;;;3.42;;
22230;SDS011;11284;48.086;-1.652;2022-11-20T03:45:37;6.78;;;3.03;;
22230;SDS011;11284;48.086;-1.652;2022-11-20T03:48:03;6.28;;;3.10;;
22230;SDS011;11284;48.086;-1.652;2022-11-20T03:50:29;8.32;;;3.25;;
22230;SDS011;11284;48.086;-1.652;2022-11-20T03:52:55;8.43;;;3.67;;
22230;SDS011;11284;48.086;-1.652;2022-11-20T03:55:21;9.55;;;3.55;;
22230;SDS011;11284;48.086;-1.652;2022-11-20T03:57:47;9.38;;;3.70;;
22230;SDS011;11284;48.086;-1.652;2022-11-20T04:00:13;6.43;;;3.25;;
22230;SDS011;11284;48.086;-1.652;2022-11-20T04:02:39;7.63;;;3.67;;
22230;SDS011;11284;48.086;-1.652;2022-11-20T04:05:05;7.10;;;3.28;;
22230;SDS011;11284;48.086;-1.652;2022-11-20T04:07:33;7.97;;;3.30;;
22230;SDS011;11284;48.086;-1.652;2022-11-20T04:09:59;8.85;;;3.55;;
22230;SDS011;11284;48.086;-1.652;2022-11-20T04:12:25;8.23;;;3.53;;
22230;SDS011;11284;48.086;-1.652;2022-11-20T04:14:51;7.47;;;3.25;;
22230;SDS011;11284;48.086;-1.652;2022-11-20T04:17:17;8.23;;;3.92;;
22230;SDS011;11284;48.086;-1.652;2022-11-20T04:19:43;10.93;;;4.05;;
22230;SDS011;11284;48.086;-1.652;2022-11-20T04:22:09;7.25;;;3.47;;
22230;SDS011;11284;48.086;-1.652;2022-11-20T04:24:37;7.57;;;3.63;;
22230;SDS011;11284;48.086;-1.652;2022-11-20T04:27:03;6.32;;;3.60;;
22230;SDS011;11284;48.086;-1.652;2022-11-20T04:29:29;9.57;;;3.70;;
22230;SDS011;11284;48.086;-1.652;2022-11-20T04:31:55;6.63;;;3.63;;
22230;SDS011;11284;48.086;-1.652;2022-11-20T04:34:21;13.00;;;4.45;;
22230;SDS011;11284;48.086;-1.652;2022-11-20T04:36:47;9.43;;;4.10;;
22230;SDS011;11284;48.086;-1.652;2022-11-20T04:39:13;9.60;;;4.80;;
22230;SDS011;11284;48.086;-1.652;2022-11-20T04:41:43;10.18;;;4.50;;
22230;SDS011;11284;48.086;-1.652;2022-11-20T04:44:09;9.20;;;4.22;;
22230;SDS011;11284;48.086;-1.652;2022-11-20T04:46:36;9.65;;;5.13;;
22230;SDS011;11284;48.086;-1.652;2022-11-20T04:49:02;8.65;;;4.82;;
22230;SDS011;11284;48.086;-1.652;2022-11-20T04:51:28;9.18;;;5.40;;
22230;SDS011;11284;48.086;-1.652;2022-11-20T04:53:55;7.63;;;5.22;;
22230;SDS011;11284;48.086;-1.652;2022-11-20T04:56:21;12.13;;;5.00;;
22230;SDS011;11284;48.086;-1.652;2022-11-20T04:58:47;8.73;;;5.20;;
22230;SDS011;11284;48.086;-1.652;2022-11-20T05:01:20;8.63;;;4.88;;
22230;SDS011;11284;48.086;-1.652;2022-11-20T05:03:46;10.90;;;5.68;;
22230;SDS011;11284;48.086;-1.652;2022-11-20T05:06:13;9.65;;;5.13;;
22230;SDS011;11284;48.086;-1.652;2022-11-20T05:08:39;10.10;;;4.97;;
22230;SDS011;11284;48.086;-1.652;2022-11-20T05:11:07;9.52;;;5.13;;
22230;SDS011;11284;48.086;-1.652;2022-11-20T05:13:33;9.10;;;5.18;;
22230;SDS011;11284;48.086;-1.652;2022-11-20T05:16:03;12.02;;;5.15;;
22230;SDS011;11284;48.086;-1.652;2022-11-20T05:18:29;9.10;;;5.55;;
22230;SDS011;11284;48.086;-1.652;2022-11-20T05:20:56;9.25;;;5.38;;
22230;SDS011;11284;48.086;-1.652;2022-11-20T05:23:22;10.07;;;4.90;;
22230;SDS011;11284;48.086;-1.652;2022-11-20T05:25:48;9.68;;;5.85;;
22230;SDS011;11284;48.086;-1.652;2022-11-20T05:28:14;9.05;;;4.78;;
22230;SDS011;11284;48.086;-1.652;2022-11-20T05:30:40;10.57;;;5.00;;
22230;SDS011;11284;48.086;-1.652;2022-11-20T05:33:06;9.05;;;5.20;;
22230;SDS011;11284;48.086;-1.652;2022-11-20T05:35:32;8.90;;;5.15;;
22230;SDS011;11284;48.086;-1.652;2022-11-20T05:37:58;8.65;;;5.15;;
22230;SDS011;11284;48.086;-1.652;2022-11-20T05:40:24;8.82;;;4.45;;
22230;SDS011;11284;48.086;-1.652;2022-11-20T05:42:50;9.15;;;4.50;;
22230;SDS011;11284;48.086;-1.652;2022-11-20T05:45:16;7.40;;;4.38;;
22230;SDS011;11284;48.086;-1.652;2022-11-20T05:47:42;8.60;;;4.13;;
22230;SDS011;11284;48.086;-1.652;2022-11-20T05:50:08;8.23;;;4.47;;
22230;SDS011;11284;48.086;-1.652;2022-11-20T05:52:34;7.70;;;3.85;;
22230;SDS011;11284;48.086;-1.652;2022-11-20T05:55:00;6.88;;;4.07;;
22230;SDS011;11284;48.086;-1.652;2022-11-20T05:57:26;6.13;;;3.78;;
22230;SDS011;11284;48.086;-1.652;2022-11-20T05:59:52;5.43;;;3.63;;
22230;SDS011;11284;48.086;-1.652;2022-11-20T06:02:18;6.50;;;3.53;;
22230;SDS011;11284;48.086;-1.652;2022-11-20T06:04:44;5.70;;;3.38;;
22230;SDS011;11284;48.086;-1.652;2022-11-20T06:07:10;5.60;;;3.58;;
22230;SDS011;11284;48.086;-1.652;2022-11-20T06:09:36;5.28;;;3.50;;
22230;SDS011;11284;48.086;-1.652;2022-11-20T06:12:02;5.35;;;3.33;;
22230;SDS011;11284;48.086;-1.652;2022-11-20T06:14:28;7.43;;;4.20;;
22230;SDS011;11284;48.086;-1.652;2022-11-20T06:16:54;6.13;;;2.97;;
22230;SDS011;11284;48.086;-1.652;2022-11-20T06:19:20;4.38;;;2.65;;
22230;SDS011;11284;48.086;-1.652;2022-11-20T06:21:47;3.70;;;1.95;;
22230;SDS011;11284;48.086;-1.652;2022-11-20T06:24:14;4.88;;;2.10;;
22230;SDS011;11284;48.086;-1.652;2022-11-20T06:26:40;5.28;;;1.90;;
22230;SDS011;11284;48.086;-1.652;2022-11-20T06:29:06;4.30;;;1.80;;
22230;SDS011;11284;48.086;-1.652;2022-11-20T06:31:32;3.58;;;1.80;;
22230;SDS011;11284;48.086;-1.652;2022-11-20T06:34:00;3.65;;;1.42;;
22230;SDS011;11284;48.086;-1.652;2022-11-20T06:36:26;3.45;;;1.52;;
22230;SDS011;11284;48.086;-1.652;2022-11-20T06:38:52;5.43;;;1.50;;
22230;SDS011;11284;48.086;-1.652;2022-11-20T06:41:19;3.70;;;1.80;;
22230;SDS011;11284;48.086;-1.652;2022-11-20T06:43:45;3.33;;;1.40;;
22230;SDS011;11284;48.086;-1.652;2022-11-20T06:46:12;4.55;;;1.50;;
22230;SDS011;11284;48.086;-1.652;2022-11-20T06:48:39;2.80;;;1.30;;
22230;SDS011;11284;48.086;-1.652;2022-11-20T06:51:05;2.95;;;1.23;;
22230;SDS011;11284;48.086;-1.652;2022-11-20T06:53:32;3.20;;;1.40;;
22230;SDS011;11284;48.086;-1.652;2022-11-20T06:55:58;2.55;;;1.20;;
22230;SDS011;11284;48.086;-1.652;2022-11-20T06:58:26;2.92;;;1.40;;
22230;SDS011;11284;48.086;-1.652;2022-11-20T07:00:52;3.47;;;1.33;;
22230;SDS011;11284;48.086;-1.652;2022-11-20T07:03:19;3.20;;;1.42;;
22230;SDS011;11284;48.086;-1.652;2022-11-20T07:05:45;3.45;;;1.77;;
22230;SDS011;11284;48.086;-1.652;2022-11-20T07:08:11;3.47;;;1.50;;
22230;SDS011;11284;48.086;-1.652;2022-11-20T07:10:37;3.72;;;1.90;;
22230;SDS011;11284;48.086;-1.652;2022-11-20T07:13:03;3.17;;;1.67;;
22230;SDS011;11284;48.086;-1.652;2022-11-20T07:15:29;3.28;;;1.92;;
22230;SDS011;11284;48.086;-1.652;2022-11-20T07:17:58;4.90;;;1.95;;
22230;SDS011;11284;48.086;-1.652;2022-11-20T07:20:24;3.80;;;2.33;;
22230;SDS011;11284;48.086;-1.652;2022-11-20T07:22:54;4.05;;;2.00;;
22230;SDS011;11284;48.086;-1.652;2022-11-20T07:25:20;5.00;;;2.03;;
22230;SDS011;11284;48.086;-1.652;2022-11-20T07:27:46;5.85;;;2.83;;
22230;SDS011;11284;48.086;-1.652;2022-11-20T07:30:12;3.47;;;2.03;;
22230;SDS011;11284;48.086;-1.652;2022-11-20T07:32:39;3.85;;;2.13;;
22230;SDS011;11284;48.086;-1.652;2022-11-20T07:35:05;3.58;;;2.10;;
22230;SDS011;11284;48.086;-1.652;2022-11-20T07:37:33;3.83;;;2.20;;
22230;SDS011;11284;48.086;-1.652;2022-11-20T07:39:59;4.38;;;2.42;;
22230;SDS011;11284;48.086;-1.652;2022-11-20T07:42:25;3.95;;;2.20;;
22230;SDS011;11284;48.086;-1.652;2022-11-20T07:44:51;4.03;;;2.78;;
22230;SDS011;11284;48.086;-1.652;2022-11-20T07:47:17;4.40;;;2.78;;
22230;SDS011;11284;48.086;-1.652;2022-11-20T07:49:43;5.82;;;2.42;;
22230;SDS011;11284;48.086;-1.652;2022-11-20T07:52:09;4.50;;;2.70;;
22230;SDS011;11284;48.086;-1.652;2022-11-20T07:54:35;5.65;;;3.38;;
22230;SDS011;11284;48.086;-1.652;2022-11-20T07:57:01;5.75;;;3.42;;
22230;SDS011;11284;48.086;-1.652;2022-11-20T07:59:27;5.65;;;3.55;;
22230;SDS011;11284;48.086;-1.652;2022-11-20T08:01:53;5.70;;;3.80;;
22230;SDS011;11284;48.086;-1.652;2022-11-20T08:04:19;20.35;;;5.03;;
22230;SDS011;11284;48.086;-1.652;2022-11-20T08:06:45;29.27;;;6.80;;
22230;SDS011;11284;48.086;-1.652;2022-11-20T08:09:11;10.52;;;6.03;;
22230;SDS011;11284;48.086;-1.652;2022-11-20T08:11:37;23.88;;;6.00;;
22230;SDS011;11284;48.086;-1.652;2022-11-20T08:14:21;11.27;;;5.22;;
22230;SDS011;11284;48.086;-1.652;2022-11-20T08:16:48;8.00;;;4.55;;
22230;SDS011;11284;48.086;-1.652;2022-11-20T08:19:15;6.65;;;4.68;;
22230;SDS011;11284;48.086;-1.652;2022-11-20T08:21:42;7.78;;;4.55;;
22230;SDS011;11284;48.086;-1.652;2022-11-20T08:24:08;7.25;;;4.60;;
22230;SDS011;11284;48.086;-1.652;2022-11-20T08:26:35;6.32;;;3.30;;
22230;SDS011;11284;48.086;-1.652;2022-11-20T08:29:01;8.18;;;3.67;;
22230;SDS011;11284;48.086;-1.652;2022-11-20T08:31:27;6.43;;;3.40;;
22230;SDS011;11284;48.086;-1.652;2022-11-20T08:33:54;6.47;;;3.05;;
22230;SDS011;11284;48.086;-1.652;2022-11-20T08:36:20;6.13;;;3.47;;
22230;SDS011;11284;48.086;-1.652;2022-11-20T08:38:47;7.72;;;4.00;;
22230;SDS011;11284;48.086;-1.652;2022-11-20T08:41:13;6.80;;;3.75;;
22230;SDS011;11284;48.086;-1.652;2022-11-20T08:43:48;7.70;;;3.10;;
22230;SDS011;11284;48.086;-1.652;2022-11-20T08:46:14;7.63;;;3.42;;
22230;SDS011;11284;48.086;-1.652;2022-11-20T08:48:40;6.28;;;3.00;;
22230;SDS011;11284;48.086;-1.652;2022-11-20T08:51:06;7.60;;;3.03;;
22230;SDS011;11284;48.086;-1.652;2022-11-20T08:53:32;9.15;;;3.28;;
22230;SDS011;11284;48.086;-1.652;2022-11-20T08:55:58;10.95;;;3.05;;
22230;SDS011;11284;48.086;-1.652;2022-11-20T08:58:25;13.75;;;3.47;;
22230;SDS011;11284;48.086;-1.652;2022-11-20T09:00:51;9.05;;;2.80;;
22230;SDS011;11284;48.086;-1.652;2022-11-20T09:03:17;12.23;;;3.22;;
22230;SDS011;11284;48.086;-1.652;2022-11-20T09:05:43;16.33;;;3.70;;
22230;SDS011;11284;48.086;-1.652;2022-11-20T09:08:09;12.50;;;2.90;;
22230;SDS011;11284;48.086;-1.652;2022-11-20T09:10:35;16.55;;;3.65;;
22230;SDS011;11284;48.086;-1.652;2022-11-20T09:13:01;13.43;;;3.05;;
22230;SDS011;11284;48.086;-1.652;2022-11-20T09:15:28;15.23;;;2.97;;
22230;SDS011;11284;48.086;-1.652;2022-11-20T09:17:58;13.95;;;3.58;;
22230;SDS011;11284;48.086;-1.652;2022-11-20T09:20:25;29.83;;;14.50;;
22230;SDS011;11284;48.086;-1.652;2022-11-20T09:22:51;16.45;;;3.53;;
22230;SDS011;11284;48.086;-1.652;2022-11-20T09:25:17;15.27;;;3.15;;
22230;SDS011;11284;48.086;-1.652;2022-11-20T09:27:43;18.85;;;3.90;;
22230;SDS011;11284;48.086;-1.652;2022-11-20T09:30:11;21.38;;;4.25;;
22230;SDS011;11284;48.086;-1.652;2022-11-20T09:32:41;20.55;;;4.60;;
22230;SDS011;11284;48.086;-1.652;2022-11-20T09:35:07;20.75;;;3.90;;
22230;SDS011;11284;48.086;-1.652;2022-11-20T09:37:33;20.75;;;4.10;;
22230;SDS011;11284;48.086;-1.652;2022-11-20T09:39:59;24.45;;;4.82;;
22230;SDS011;11284;48.086;-1.652;2022-11-20T09:42:42;20.38;;;4.38;;
22230;SDS011;11284;48.086;-1.652;2022-11-20T09:50:25;19.58;;;4.55;;
22230;SDS011;11284;48.086;-1.652;2022-11-20T09:55:39;19.98;;;4.85;;
22230;SDS011;11284;48.086;-1.652;2022-11-20T09:58:05;20.45;;;4.68;;
22230;SDS011;11284;48.086;-1.652;2022-11-20T10:00:32;28.75;;;5.30;;
22230;SDS011;11284;48.086;-1.652;2022-11-20T10:03:10;16.95;;;4.57;;
22230;SDS011;11284;48.086;-1.652;2022-11-20T10:08:48;23.08;;;5.10;;
22230;SDS011;11284;48.086;-1.652;2022-11-20T10:15:56;26.73;;;5.28;;
22230;SDS011;11284;48.086;-1.652;2022-11-20T10:21:13;27.05;;;5.40;;
22230;SDS011;11284;48.086;-1.652;2022-11-20T10:28:43;31.85;;;5.40;;
22230;SDS011;11284;48.086;-1.652;2022-11-20T10:31:34;24.42;;;5.13;;
22230;SDS011;11284;48.086;-1.652;2022-11-20T10:33:59;27.67;;;5.38;;
22230;SDS011;11284;48.086;-1.652;2022-11-20T10:36:28;27.55;;;4.75;;
22230;SDS011;11284;48.086;-1.652;2022-11-20T10:38:57;26.08;;;5.10;;
22230;SDS011;11284;48.086;-1.652;2022-11-20T10:41:30;21.85;;;4.78;;
22230;SDS011;11284;48.086;-1.652;2022-11-20T10:46:26;27.77;;;5.30;;
22230;SDS011;11284;48.086;-1.652;2022-11-20T10:48:55;24.50;;;5.38;;
22230;SDS011;11284;48.086;-1.652;2022-11-20T10:56:50;24.20;;;5.43;;
22230;SDS011;11284;48.086;-1.652;2022-11-20T11:01:45;25.90;;;5.68;;
22230;SDS011;11284;48.086;-1.652;2022-11-20T11:04:53;23.48;;;4.50;;
22230;SDS011;11284;48.086;-1.652;2022-11-20T11:07:09;22.40;;;5.10;;
22230;SDS011;11284;48.086;-1.652;2022-11-20T11:09:38;21.60;;;5.13;;
22230;SDS011;11284;48.086;-1.652;2022-11-20T11:12:06;23.30;;;5.05;;
22230;SDS011;11284;48.086;-1.652;2022-11-20T11:14:41;23.23;;;5.75;;
22230;SDS011;11284;48.086;-1.652;2022-11-20T11:17:17;18.73;;;4.15;;
22230;SDS011;11284;48.086;-1.652;2022-11-20T11:19:44;27.92;;;5.20;;
22230;SDS011;11284;48.086;-1.652;2022-11-20T11:22:11;22.80;;;4.68;;
22230;SDS011;11284;48.086;-1.652;2022-11-20T11:24:43;22.20;;;4.85;;
22230;SDS011;11284;48.086;-1.652;2022-11-20T11:27:16;24.30;;;5.63;;
22230;SDS011;11284;48.086;-1.652;2022-11-20T11:29:42;24.67;;;4.93;;
22230;SDS011;11284;48.086;-1.652;2022-11-20T11:32:12;24.15;;;5.25;;
22230;SDS011;11284;48.086;-1.652;2022-11-20T11:34:38;21.70;;;4.68;;
22230;SDS011;11284;48.086;-1.652;2022-11-20T11:37:04;22.92;;;5.18;;
22230;SDS011;11284;48.086;-1.652;2022-11-20T11:39:31;23.60;;;4.55;;
22230;SDS011;11284;48.086;-1.652;2022-11-20T11:41:59;23.00;;;4.90;;
22230;SDS011;11284;48.086;-1.652;2022-11-20T11:44:33;16.75;;;3.92;;
22230;SDS011;11284;48.086;-1.652;2022-11-20T11:47:24;21.20;;;4.50;;
22230;SDS011;11284;48.086;-1.652;2022-11-20T11:55:12;21.35;;;4.07;;
22230;SDS011;11284;48.086;-1.652;2022-11-20T11:57:42;21.48;;;4.45;;
22230;SDS011;11284;48.086;-1.652;2022-11-20T12:00:14;18.77;;;4.15;;
22230;SDS011;11284;48.086;-1.652;2022-11-20T12:10:21;17.77;;;3.72;;
22230;SDS011;11284;48.086;-1.652;2022-11-20T12:12:50;22.05;;;4.97;;
22230;SDS011;11284;48.086;-1.652;2022-11-20T12:15:44;17.15;;;3.75;;
22230;SDS011;11284;48.086;-1.652;2022-11-20T12:18:09;17.25;;;4.85;;
22230;SDS011;11284;48.086;-1.652;2022-11-20T12:20:41;19.27;;;4.13;;
22230;SDS011;11284;48.086;-1.652;2022-11-20T12:23:22;15.60;;;3.53;;
22230;SDS011;11284;48.086;-1.652;2022-11-20T12:25:52;13.32;;;3.38;;
22230;SDS011;11284;48.086;-1.652;2022-11-20T12:46:51;17.33;;;4.10;;
22230;SDS011;11284;48.086;-1.652;2022-11-20T12:49:35;19.95;;;4.18;;
22230;SDS011;11284;48.086;-1.652;2022-11-20T12:52:11;16.88;;;3.35;;
22230;SDS011;11284;48.086;-1.652;2022-11-20T13:08:18;20.10;;;4.97;;
22230;SDS011;11284;48.086;-1.652;2022-11-20T13:11:08;18.13;;;4.38;;
22230;SDS011;11284;48.086;-1.652;2022-11-20T13:16:17;26.00;;;5.25;;
22230;SDS011;11284;48.086;-1.652;2022-11-20T13:18:45;20.77;;;5.65;;
22230;SDS011;11284;48.086;-1.652;2022-11-20T13:23:40;16.77;;;4.32;;
22230;SDS011;11284;48.086;-1.652;2022-11-20T13:26:14;17.75;;;4.00;;
22230;SDS011;11284;48.086;-1.652;2022-11-20T13:28:40;16.40;;;3.33;;
22230;SDS011;11284;48.086;-1.652;2022-11-20T13:31:22;17.55;;;3.25;;
22230;SDS011;11284;48.086;-1.652;2022-11-20T13:33:51;19.23;;;4.20;;
22230;SDS011;11284;48.086;-1.652;2022-11-20T13:36:22;14.00;;;3.10;;
22230;SDS011;11284;48.086;-1.652;2022-11-20T13:38:49;14.57;;;3.15;;
22230;SDS011;11284;48.086;-1.652;2022-11-20T13:41:32;15.10;;;3.25;;
22230;SDS011;11284;48.086;-1.652;2022-11-20T13:46:40;15.32;;;3.17;;
22230;SDS011;11284;48.086;-1.652;2022-11-20T13:49:09;14.70;;;3.08;;
22230;SDS011;11284;48.086;-1.652;2022-11-20T13:51:48;17.88;;;3.50;;
22230;SDS011;11284;48.086;-1.652;2022-11-20T14:02:14;18.10;;;6.47;;
22230;SDS011;11284;48.086;-1.652;2022-11-20T14:04:45;16.17;;;3.95;;
22230;SDS011;11284;48.086;-1.652;2022-11-20T14:07:12;15.32;;;3.55;;
22230;SDS011;11284;48.086;-1.652;2022-11-20T14:09:38;16.90;;;5.25;;
22230;SDS011;11284;48.086;-1.652;2022-11-20T14:12:12;14.35;;;3.33;;
22230;SDS011;11284;48.086;-1.652;2022-11-20T14:14:47;14.93;;;3.30;;
22230;SDS011;11284;48.086;-1.652;2022-11-20T14:17:23;14.57;;;3.30;;
22230;SDS011;11284;48.086;-1.652;2022-11-20T14:19:51;15.60;;;3.55;;
22230;SDS011;11284;48.086;-1.652;2022-11-20T14:22:21;15.57;;;3.90;;
22230;SDS011;11284;48.086;-1.652;2022-11-20T14:25:32;15.95;;;2.80;;
22230;SDS011;11284;48.086;-1.652;2022-11-20T14:27:37;14.73;;;3.53;;
22230;SDS011;11284;48.086;-1.652;2022-11-20T14:30:03;18.13;;;4.32;;
22230;SDS011;11284;48.086;-1.652;2022-11-20T14:32:30;10.57;;;3.15;;
22230;SDS011;11284;48.086;-1.652;2022-11-20T14:34:58;13.10;;;2.90;;
22230;SDS011;11284;48.086;-1.652;2022-11-20T14:37:26;13.95;;;3.70;;
22230;SDS011;11284;48.086;-1.652;2022-11-20T14:39:55;14.88;;;3.80;;
22230;SDS011;11284;48.086;-1.652;2022-11-20T14:42:22;17.20;;;3.47;;
22230;SDS011;11284;48.086;-1.652;2022-11-20T14:44:49;14.57;;;2.92;;
22230;SDS011;11284;48.086;-1.652;2022-11-20T14:47:17;21.15;;;9.00;;
22230;SDS011;11284;48.086;-1.652;2022-11-20T14:49:44;21.13;;;10.93;;
22230;SDS011;11284;48.086;-1.652;2022-11-20T14:52:12;17.80;;;3.50;;
22230;SDS011;11284;48.086;-1.652;2022-11-20T14:54:46;19.20;;;3.83;;
22230;SDS011;11284;48.086;-1.652;2022-11-20T14:57:25;14.80;;;3.72;;
22230;SDS011;11284;48.086;-1.652;2022-11-20T15:00:03;16.85;;;4.15;;
22230;SDS011;11284;48.086;-1.652;2022-11-20T15:02:30;17.58;;;3.70;;
22230;SDS011;11284;48.086;-1.652;2022-11-20T15:04:57;18.42;;;3.58;;
22230;SDS011;11284;48.086;-1.652;2022-11-20T15:07:35;14.65;;;3.10;;
22230;SDS011;11284;48.086;-1.652;2022-11-20T15:12:31;17.45;;;3.53;;
22230;SDS011;11284;48.086;-1.652;2022-11-20T15:14:58;13.85;;;3.20;;
22230;SDS011;11284;48.086;-1.652;2022-11-20T15:17:24;14.68;;;3.25;;
22230;SDS011;11284;48.086;-1.652;2022-11-20T15:19:50;16.13;;;3.10;;
22230;SDS011;11284;48.086;-1.652;2022-11-20T15:22:17;17.75;;;3.85;;
22230;SDS011;11284;48.086;-1.652;2022-11-20T15:24:43;20.23;;;3.58;;
22230;SDS011;11284;48.086;-1.652;2022-11-20T15:27:09;14.57;;;3.58;;
22230;SDS011;11284;48.086;-1.652;2022-11-20T15:29:36;16.55;;;3.75;;
22230;SDS011;11284;48.086;-1.652;2022-11-20T15:32:02;17.45;;;4.00;;
22230;SDS011;11284;48.086;-1.652;2022-11-20T15:34:28;15.75;;;3.65;;
22230;SDS011;11284;48.086;-1.652;2022-11-20T15:36:54;14.30;;;3.30;;
22230;SDS011;11284;48.086;-1.652;2022-11-20T15:39:20;21.08;;;4.55;;
22230;SDS011;11284;48.086;-1.652;2022-11-20T15:41:46;17.13;;;3.95;;
22230;SDS011;11284;48.086;-1.652;2022-11-20T15:44:12;17.42;;;4.00;;
22230;SDS011;11284;48.086;-1.652;2022-11-20T15:46:39;15.13;;;4.13;;
22230;SDS011;11284;48.086;-1.652;2022-11-20T15:49:14;23.08;;;4.35;;
22230;SDS011;11284;48.086;-1.652;2022-11-20T15:51:44;13.82;;;3.25;;
22230;SDS011;11284;48.086;-1.652;2022-11-20T15:54:18;17.30;;;4.38;;
22230;SDS011;11284;48.086;-1.652;2022-11-20T15:56:45;18.85;;;3.83;;
22230;SDS011;11284;48.086;-1.652;2022-11-20T15:59:11;17.45;;;3.83;;
22230;SDS011;11284;48.086;-1.652;2022-11-20T16:01:39;18.67;;;5.72;;
22230;SDS011;11284;48.086;-1.652;2022-11-20T16:04:09;18.58;;;4.20;;
22230;SDS011;11284;48.086;-1.652;2022-11-20T16:06:35;11.38;;;3.90;;
22230;SDS011;11284;48.086;-1.652;2022-11-20T16:09:01;14.45;;;3.80;;
22230;SDS011;11284;48.086;-1.652;2022-11-20T16:11:27;17.77;;;3.83;;
22230;SDS011;11284;48.086;-1.652;2022-11-20T16:13:53;16.27;;;3.60;;
22230;SDS011;11284;48.086;-1.652;2022-11-20T16:16:38;14.50;;;3.60;;
22230;SDS011;11284;48.086;-1.652;2022-11-20T16:19:09;13.80;;;3.90;;